sensor_id;sensor_type;location;lat;lon;timestamp;P1;durP1;ratioP1;P2;durP2;ratioP2
5876;SDS011;2964;42.144;24.730;2023-06-22T00:00:40;15.47;;;14.10;;
5876;SDS011;2964;42.144;24.730;2023-06-22T00:03:07;15.83;;;14.50;;
5876;SDS011;2964;42.144;24.730;2023-06-22T00:05:34;14.57;;;13.47;;
5876;SDS011;2964;42.144;24.730;2023-06-22T00:08:02;16.47;;;14.80;;
5876;SDS011;2964;42.144;24.730;2023-06-22T00:10:30;14.73;;;13.53;;
5876;SDS011;2964;42.144;24.730;2023-06-22T00:12:57;15.20;;;14.00;;
5876;SDS011;2964;42.144;24.730;2023-06-22T00:15:25;16.47;;;14.17;;
5876;SDS011;2964;42.144;24.730;2023-06-22T00:17:52;16.17;;;15.07;;
5876;SDS011;2964;42.144;24.730;2023-06-22T00:20:18;17.63;;;15.50;;
5876;SDS011;2964;42.144;24.730;2023-06-22T00:22:45;16.07;;;14.87;;
5876;SDS011;2964;42.144;24.730;2023-06-22T00:25:13;17.00;;;15.30;;
5876;SDS011;2964;42.144;24.730;2023-06-22T00:27:39;17.17;;;15.30;;
5876;SDS011;2964;42.144;24.730;2023-06-22T00:30:06;17.70;;;15.97;;
5876;SDS011;2964;42.144;24.730;2023-06-22T00:32:35;16.70;;;15.40;;
5876;SDS011;2964;42.144;24.730;2023-06-22T00:35:02;17.05;;;15.40;;
5876;SDS011;2964;42.144;24.730;2023-06-22T00:37:29;18.97;;;15.83;;
5876;SDS011;2964;42.144;24.730;2023-06-22T00:39:56;17.83;;;16.07;;
5876;SDS011;2964;42.144;24.730;2023-06-22T00:42:22;16.80;;;15.17;;
5876;SDS011;2964;42.144;24.730;2023-06-22T00:44:49;18.10;;;16.33;;
5876;SDS011;2964;42.144;24.730;2023-06-22T00:47:17;18.10;;;15.00;;
5876;SDS011;2964;42.144;24.730;2023-06-22T00:49:49;17.50;;;15.33;;
5876;SDS011;2964;42.144;24.730;2023-06-22T00:52:17;15.97;;;14.77;;
5876;SDS011;2964;42.144;24.730;2023-06-22T00:54:46;18.33;;;16.60;;
5876;SDS011;2964;42.144;24.730;2023-06-22T00:57:14;17.10;;;15.63;;
5876;SDS011;2964;42.144;24.730;2023-06-22T00:59:42;17.03;;;15.70;;
5876;SDS011;2964;42.144;24.730;2023-06-22T01:02:09;16.60;;;15.10;;
5876;SDS011;2964;42.144;24.730;2023-06-22T01:04:36;18.07;;;16.40;;
5876;SDS011;2964;42.144;24.730;2023-06-22T01:07:08;17.37;;;15.67;;
5876;SDS011;2964;42.144;24.730;2023-06-22T01:09:49;18.07;;;16.33;;
5876;SDS011;2964;42.144;24.730;2023-06-22T01:12:23;17.00;;;15.40;;
5876;SDS011;2964;42.144;24.730;2023-06-22T01:14:53;18.37;;;16.87;;
5876;SDS011;2964;42.144;24.730;2023-06-22T01:17:25;17.70;;;15.90;;
5876;SDS011;2964;42.144;24.730;2023-06-22T01:19:56;19.42;;;17.70;;
5876;SDS011;2964;42.144;24.730;2023-06-22T01:22:28;18.80;;;17.10;;
5876;SDS011;2964;42.144;24.730;2023-06-22T01:25:00;22.38;;;17.73;;
5876;SDS011;2964;42.144;24.730;2023-06-22T01:27:38;19.93;;;18.10;;
5876;SDS011;2964;42.144;24.730;2023-06-22T01:30:15;18.83;;;16.70;;
5876;SDS011;2964;42.144;24.730;2023-06-22T01:32:42;18.73;;;16.97;;
5876;SDS011;2964;42.144;24.730;2023-06-22T01:35:10;18.73;;;17.20;;
5876;SDS011;2964;42.144;24.730;2023-06-22T01:37:38;20.37;;;16.33;;
5876;SDS011;2964;42.144;24.730;2023-06-22T01:40:05;20.10;;;16.63;;
5876;SDS011;2964;42.144;24.730;2023-06-22T01:42:34;16.70;;;15.20;;
5876;SDS011;2964;42.144;24.730;2023-06-22T01:45:02;15.30;;;13.87;;
5876;SDS011;2964;42.144;24.730;2023-06-22T01:47:31;15.93;;;14.70;;
5876;SDS011;2964;42.144;24.730;2023-06-22T01:49:58;19.07;;;14.47;;
5876;SDS011;2964;42.144;24.730;2023-06-22T01:52:25;15.67;;;14.47;;
5876;SDS011;2964;42.144;24.730;2023-06-22T01:54:52;16.03;;;14.47;;
5876;SDS011;2964;42.144;24.730;2023-06-22T01:57:18;15.53;;;14.17;;
5876;SDS011;2964;42.144;24.730;2023-06-22T01:59:47;15.47;;;14.27;;
5876;SDS011;2964;42.144;24.730;2023-06-22T02:02:17;15.23;;;14.03;;
5876;SDS011;2964;42.144;24.730;2023-06-22T02:04:54;15.50;;;14.30;;
5876;SDS011;2964;42.144;24.730;2023-06-22T02:07:27;15.43;;;14.23;;
5876;SDS011;2964;42.144;24.730;2023-06-22T02:09:58;15.33;;;14.10;;
5876;SDS011;2964;42.144;24.730;2023-06-22T02:12:26;17.37;;;16.03;;
5876;SDS011;2964;42.144;24.730;2023-06-22T02:14:55;19.03;;;17.43;;
5876;SDS011;2964;42.144;24.730;2023-06-22T02:17:23;19.03;;;17.63;;
5876;SDS011;2964;42.144;24.730;2023-06-22T02:19:53;18.43;;;16.97;;
5876;SDS011;2964;42.144;24.730;2023-06-22T02:22:19;19.93;;;17.83;;
5876;SDS011;2964;42.144;24.730;2023-06-22T02:24:46;19.40;;;17.77;;
5876;SDS011;2964;42.144;24.730;2023-06-22T02:27:13;20.87;;;18.83;;
5876;SDS011;2964;42.144;24.730;2023-06-22T02:29:39;18.63;;;17.13;;
5876;SDS011;2964;42.144;24.730;2023-06-22T02:32:06;19.53;;;17.93;;
5876;SDS011;2964;42.144;24.730;2023-06-22T02:34:33;19.07;;;17.57;;
5876;SDS011;2964;42.144;24.730;2023-06-22T02:37:03;19.57;;;17.73;;
5876;SDS011;2964;42.144;24.730;2023-06-22T02:39:30;19.90;;;17.93;;
5876;SDS011;2964;42.144;24.730;2023-06-22T02:41:57;20.33;;;18.27;;
5876;SDS011;2964;42.144;24.730;2023-06-22T02:44:23;18.70;;;17.20;;
5876;SDS011;2964;42.144;24.730;2023-06-22T02:46:50;18.83;;;17.40;;
5876;SDS011;2964;42.144;24.730;2023-06-22T02:49:17;19.53;;;17.63;;
5876;SDS011;2964;42.144;24.730;2023-06-22T02:51:45;19.53;;;17.80;;
5876;SDS011;2964;42.144;24.730;2023-06-22T02:54:14;19.63;;;17.63;;
5876;SDS011;2964;42.144;24.730;2023-06-22T02:56:41;20.63;;;18.33;;
5876;SDS011;2964;42.144;24.730;2023-06-22T02:59:08;19.70;;;18.00;;
5876;SDS011;2964;42.144;24.730;2023-06-22T03:01:36;19.30;;;17.80;;
5876;SDS011;2964;42.144;24.730;2023-06-22T03:04:05;18.63;;;17.13;;
5876;SDS011;2964;42.144;24.730;2023-06-22T03:06:32;17.53;;;16.07;;
5876;SDS011;2964;42.144;24.730;2023-06-22T03:08:59;17.50;;;15.90;;
5876;SDS011;2964;42.144;24.730;2023-06-22T03:11:30;16.93;;;15.70;;
5876;SDS011;2964;42.144;24.730;2023-06-22T03:13:57;16.27;;;15.00;;
5876;SDS011;2964;42.144;24.730;2023-06-22T03:16:24;15.40;;;14.10;;
5876;SDS011;2964;42.144;24.730;2023-06-22T03:18:50;15.80;;;14.70;;
5876;SDS011;2964;42.144;24.730;2023-06-22T03:21:18;15.23;;;13.93;;
5876;SDS011;2964;42.144;24.730;2023-06-22T03:23:45;15.17;;;14.07;;
5876;SDS011;2964;42.144;24.730;2023-06-22T03:26:12;13.97;;;12.87;;
5876;SDS011;2964;42.144;24.730;2023-06-22T03:28:40;14.13;;;13.13;;
5876;SDS011;2964;42.144;24.730;2023-06-22T03:31:07;14.93;;;13.70;;
5876;SDS011;2964;42.144;24.730;2023-06-22T03:33:34;14.97;;;13.67;;
5876;SDS011;2964;42.144;24.730;2023-06-22T03:36:01;15.37;;;14.17;;
5876;SDS011;2964;42.144;24.730;2023-06-22T03:38:27;14.67;;;13.47;;
5876;SDS011;2964;42.144;24.730;2023-06-22T03:40:54;15.73;;;14.33;;
5876;SDS011;2964;42.144;24.730;2023-06-22T03:43:21;16.53;;;14.83;;
5876;SDS011;2964;42.144;24.730;2023-06-22T03:45:50;17.37;;;15.87;;
5876;SDS011;2964;42.144;24.730;2023-06-22T03:48:17;16.97;;;15.47;;
5876;SDS011;2964;42.144;24.730;2023-06-22T03:50:44;16.57;;;15.03;;
5876;SDS011;2964;42.144;24.730;2023-06-22T03:53:10;16.67;;;15.20;;
5876;SDS011;2964;42.144;24.730;2023-06-22T03:55:40;17.93;;;16.30;;
5876;SDS011;2964;42.144;24.730;2023-06-22T03:58:14;18.83;;;16.90;;
5876;SDS011;2964;42.144;24.730;2023-06-22T04:00:40;17.47;;;16.07;;
5876;SDS011;2964;42.144;24.730;2023-06-22T04:03:08;17.97;;;16.27;;
5876;SDS011;2964;42.144;24.730;2023-06-22T04:05:37;17.67;;;15.47;;
5876;SDS011;2964;42.144;24.730;2023-06-22T04:08:04;17.43;;;15.97;;
5876;SDS011;2964;42.144;24.730;2023-06-22T04:10:31;17.00;;;15.63;;
5876;SDS011;2964;42.144;24.730;2023-06-22T04:12:58;18.37;;;16.43;;
5876;SDS011;2964;42.144;24.730;2023-06-22T04:15:24;17.60;;;16.20;;
5876;SDS011;2964;42.144;24.730;2023-06-22T04:17:51;16.70;;;15.10;;
5876;SDS011;2964;42.144;24.730;2023-06-22T04:20:19;16.47;;;14.33;;
5876;SDS011;2964;42.144;24.730;2023-06-22T04:22:46;14.70;;;13.30;;
5876;SDS011;2964;42.144;24.730;2023-06-22T04:25:12;14.95;;;13.30;;
5876;SDS011;2964;42.144;24.730;2023-06-22T04:27:40;14.82;;;13.50;;
5876;SDS011;2964;42.144;24.730;2023-06-22T04:30:07;13.02;;;11.98;;
5876;SDS011;2964;42.144;24.730;2023-06-22T04:32:34;12.07;;;11.32;;
5876;SDS011;2964;42.144;24.730;2023-06-22T04:35:02;13.10;;;11.88;;
5876;SDS011;2964;42.144;24.730;2023-06-22T04:37:31;13.55;;;12.32;;
5876;SDS011;2964;42.144;24.730;2023-06-22T04:39:57;13.50;;;12.23;;
5876;SDS011;2964;42.144;24.730;2023-06-22T04:42:25;13.77;;;12.50;;
5876;SDS011;2964;42.144;24.730;2023-06-22T04:44:53;12.73;;;11.73;;
5876;SDS011;2964;42.144;24.730;2023-06-22T04:47:20;13.65;;;12.32;;
5876;SDS011;2964;42.144;24.730;2023-06-22T04:49:46;14.13;;;12.88;;
5876;SDS011;2964;42.144;24.730;2023-06-22T04:52:13;14.23;;;12.98;;
5876;SDS011;2964;42.144;24.730;2023-06-22T04:54:44;30.08;;;13.70;;
5876;SDS011;2964;42.144;24.730;2023-06-22T04:57:13;16.83;;;13.48;;
5876;SDS011;2964;42.144;24.730;2023-06-22T04:59:40;13.38;;;12.38;;
5876;SDS011;2964;42.144;24.730;2023-06-22T05:02:07;14.60;;;13.20;;
5876;SDS011;2964;42.144;24.730;2023-06-22T05:04:34;14.63;;;12.98;;
5876;SDS011;2964;42.144;24.730;2023-06-22T05:07:03;15.45;;;12.90;;
5876;SDS011;2964;42.144;24.730;2023-06-22T05:09:31;13.98;;;12.52;;
5876;SDS011;2964;42.144;24.730;2023-06-22T05:12:00;15.65;;;12.25;;
5876;SDS011;2964;42.144;24.730;2023-06-22T05:14:27;14.23;;;13.07;;
5876;SDS011;2964;42.144;24.730;2023-06-22T05:16:54;14.55;;;13.15;;
5876;SDS011;2964;42.144;24.730;2023-06-22T05:19:23;13.73;;;12.77;;
5876;SDS011;2964;42.144;24.730;2023-06-22T05:21:50;14.40;;;13.07;;
5876;SDS011;2964;42.144;24.730;2023-06-22T05:24:17;13.75;;;12.50;;
5876;SDS011;2964;42.144;24.730;2023-06-22T05:26:43;13.52;;;12.20;;
5876;SDS011;2964;42.144;24.730;2023-06-22T05:29:11;13.77;;;12.43;;
5876;SDS011;2964;42.144;24.730;2023-06-22T05:31:38;13.20;;;12.20;;
5876;SDS011;2964;42.144;24.730;2023-06-22T05:34:05;13.32;;;11.82;;
5876;SDS011;2964;42.144;24.730;2023-06-22T05:36:32;14.73;;;12.43;;
5876;SDS011;2964;42.144;24.730;2023-06-22T05:38:59;12.88;;;12.02;;
5876;SDS011;2964;42.144;24.730;2023-06-22T05:41:25;13.18;;;12.05;;
5876;SDS011;2964;42.144;24.730;2023-06-22T05:43:52;12.95;;;11.63;;
5876;SDS011;2964;42.144;24.730;2023-06-22T05:46:20;13.32;;;12.13;;
5876;SDS011;2964;42.144;24.730;2023-06-22T05:48:47;13.00;;;11.93;;
5876;SDS011;2964;42.144;24.730;2023-06-22T05:51:13;11.35;;;10.38;;
5876;SDS011;2964;42.144;24.730;2023-06-22T05:53:40;12.18;;;11.35;;
5876;SDS011;2964;42.144;24.730;2023-06-22T05:56:06;14.18;;;12.82;;
5876;SDS011;2964;42.144;24.730;2023-06-22T05:58:33;11.65;;;10.48;;
5876;SDS011;2964;42.144;24.730;2023-06-22T06:01:01;15.48;;;11.50;;
5876;SDS011;2964;42.144;24.730;2023-06-22T06:03:29;11.80;;;10.85;;
5876;SDS011;2964;42.144;24.730;2023-06-22T06:05:56;11.85;;;11.10;;
5876;SDS011;2964;42.144;24.730;2023-06-22T06:08:22;11.45;;;10.45;;
5876;SDS011;2964;42.144;24.730;2023-06-22T06:10:49;12.43;;;11.27;;
5876;SDS011;2964;42.144;24.730;2023-06-22T06:13:18;12.85;;;11.00;;
5876;SDS011;2964;42.144;24.730;2023-06-22T06:15:44;11.45;;;10.80;;
5876;SDS011;2964;42.144;24.730;2023-06-22T06:18:11;11.38;;;10.57;;
5876;SDS011;2964;42.144;24.730;2023-06-22T06:20:39;11.93;;;10.98;;
5876;SDS011;2964;42.144;24.730;2023-06-22T06:23:06;12.82;;;11.65;;
5876;SDS011;2964;42.144;24.730;2023-06-22T06:25:32;12.60;;;11.50;;
5876;SDS011;2964;42.144;24.730;2023-06-22T06:27:59;12.07;;;11.13;;
5876;SDS011;2964;42.144;24.730;2023-06-22T06:30:26;12.43;;;11.30;;
5876;SDS011;2964;42.144;24.730;2023-06-22T06:32:52;12.02;;;11.23;;
5876;SDS011;2964;42.144;24.730;2023-06-22T06:35:19;12.05;;;11.30;;
5876;SDS011;2964;42.144;24.730;2023-06-22T06:37:48;12.43;;;11.60;;
5876;SDS011;2964;42.144;24.730;2023-06-22T06:40:16;12.43;;;11.07;;
5876;SDS011;2964;42.144;24.730;2023-06-22T06:42:46;11.93;;;10.85;;
5876;SDS011;2964;42.144;24.730;2023-06-22T06:45:15;11.77;;;10.57;;
5876;SDS011;2964;42.144;24.730;2023-06-22T06:47:43;11.07;;;10.48;;
5876;SDS011;2964;42.144;24.730;2023-06-22T06:50:10;11.77;;;10.77;;
5876;SDS011;2964;42.144;24.730;2023-06-22T06:52:37;11.07;;;10.48;;
5876;SDS011;2964;42.144;24.730;2023-06-22T06:55:06;11.27;;;10.60;;
5876;SDS011;2964;42.144;24.730;2023-06-22T06:57:34;10.43;;;9.52;;
5876;SDS011;2964;42.144;24.730;2023-06-22T07:00:02;11.23;;;10.63;;
5876;SDS011;2964;42.144;24.730;2023-06-22T07:02:34;10.82;;;10.23;;
5876;SDS011;2964;42.144;24.730;2023-06-22T07:05:01;11.23;;;10.13;;
5876;SDS011;2964;42.144;24.730;2023-06-22T07:07:29;11.57;;;10.48;;
5876;SDS011;2964;42.144;24.730;2023-06-22T07:09:56;11.32;;;10.63;;
5876;SDS011;2964;42.144;24.730;2023-06-22T07:12:24;11.27;;;10.38;;
5876;SDS011;2964;42.144;24.730;2023-06-22T07:14:51;11.15;;;10.55;;
5876;SDS011;2964;42.144;24.730;2023-06-22T07:17:18;12.00;;;11.20;;
5876;SDS011;2964;42.144;24.730;2023-06-22T07:19:45;11.52;;;10.40;;
5876;SDS011;2964;42.144;24.730;2023-06-22T07:22:12;11.77;;;10.88;;
5876;SDS011;2964;42.144;24.730;2023-06-22T07:24:38;18.98;;;11.23;;
5876;SDS011;2964;42.144;24.730;2023-06-22T07:27:05;12.10;;;11.00;;
5876;SDS011;2964;42.144;24.730;2023-06-22T07:29:33;11.48;;;10.70;;
5876;SDS011;2964;42.144;24.730;2023-06-22T07:32:01;11.02;;;10.23;;
5876;SDS011;2964;42.144;24.730;2023-06-22T07:34:30;11.57;;;10.77;;
5876;SDS011;2964;42.144;24.730;2023-06-22T07:36:56;12.32;;;11.57;;
5876;SDS011;2964;42.144;24.730;2023-06-22T07:39:23;10.68;;;9.85;;
5876;SDS011;2964;42.144;24.730;2023-06-22T07:41:51;10.15;;;9.38;;
5876;SDS011;2964;42.144;24.730;2023-06-22T07:44:18;11.05;;;10.35;;
5876;SDS011;2964;42.144;24.730;2023-06-22T07:46:46;11.32;;;10.40;;
5876;SDS011;2964;42.144;24.730;2023-06-22T07:49:12;9.65;;;8.77;;
5876;SDS011;2964;42.144;24.730;2023-06-22T07:51:39;9.70;;;8.80;;
5876;SDS011;2964;42.144;24.730;2023-06-22T07:54:06;11.52;;;9.35;;
5876;SDS011;2964;42.144;24.730;2023-06-22T07:56:33;10.93;;;9.85;;
5876;SDS011;2964;42.144;24.730;2023-06-22T07:58:59;9.48;;;9.02;;
5876;SDS011;2964;42.144;24.730;2023-06-22T08:01:28;10.43;;;9.93;;
5876;SDS011;2964;42.144;24.730;2023-06-22T08:03:56;11.23;;;10.15;;
5876;SDS011;2964;42.144;24.730;2023-06-22T08:06:23;9.20;;;8.73;;
5876;SDS011;2964;42.144;24.730;2023-06-22T08:08:50;10.25;;;9.65;;
5876;SDS011;2964;42.144;24.730;2023-06-22T08:11:17;10.45;;;9.95;;
5876;SDS011;2964;42.144;24.730;2023-06-22T08:13:44;8.98;;;8.27;;
5876;SDS011;2964;42.144;24.730;2023-06-22T08:16:11;9.23;;;8.75;;
5876;SDS011;2964;42.144;24.730;2023-06-22T08:18:37;9.00;;;8.50;;
5876;SDS011;2964;42.144;24.730;2023-06-22T08:21:05;10.38;;;9.63;;
5876;SDS011;2964;42.144;24.730;2023-06-22T08:23:32;10.27;;;9.52;;
5876;SDS011;2964;42.144;24.730;2023-06-22T08:25:59;11.25;;;10.38;;
5876;SDS011;2964;42.144;24.730;2023-06-22T08:28:25;10.02;;;9.07;;
5876;SDS011;2964;42.144;24.730;2023-06-22T08:30:52;10.18;;;9.57;;
5876;SDS011;2964;42.144;24.730;2023-06-22T08:33:20;11.75;;;11.05;;
5876;SDS011;2964;42.144;24.730;2023-06-22T08:35:53;10.02;;;9.32;;
5876;SDS011;2964;42.144;24.730;2023-06-22T08:38:21;10.55;;;9.73;;
5876;SDS011;2964;42.144;24.730;2023-06-22T08:40:48;9.45;;;9.05;;
5876;SDS011;2964;42.144;24.730;2023-06-22T08:43:15;9.40;;;8.90;;
5876;SDS011;2964;42.144;24.730;2023-06-22T08:45:41;9.82;;;9.23;;
5876;SDS011;2964;42.144;24.730;2023-06-22T08:48:08;9.00;;;8.45;;
5876;SDS011;2964;42.144;24.730;2023-06-22T08:50:34;9.45;;;8.93;;
5876;SDS011;2964;42.144;24.730;2023-06-22T08:53:01;9.90;;;9.40;;
5876;SDS011;2964;42.144;24.730;2023-06-22T08:55:29;9.98;;;9.48;;
5876;SDS011;2964;42.144;24.730;2023-06-22T08:57:56;9.48;;;8.98;;
5876;SDS011;2964;42.144;24.730;2023-06-22T09:00:22;10.77;;;9.77;;
5876;SDS011;2964;42.144;24.730;2023-06-22T09:02:49;10.70;;;9.38;;
5876;SDS011;2964;42.144;24.730;2023-06-22T09:05:16;9.52;;;8.95;;
5876;SDS011;2964;42.144;24.730;2023-06-22T09:07:43;9.45;;;8.95;;
5876;SDS011;2964;42.144;24.730;2023-06-22T09:10:10;9.25;;;8.50;;
5876;SDS011;2964;42.144;24.730;2023-06-22T09:12:38;8.90;;;8.35;;
5876;SDS011;2964;42.144;24.730;2023-06-22T09:15:06;9.90;;;9.10;;
5876;SDS011;2964;42.144;24.730;2023-06-22T09:17:33;9.02;;;8.45;;
5876;SDS011;2964;42.144;24.730;2023-06-22T09:20:02;8.55;;;8.15;;
5876;SDS011;2964;42.144;24.730;2023-06-22T09:22:30;9.18;;;8.60;;
5876;SDS011;2964;42.144;24.730;2023-06-22T09:24:57;9.18;;;8.68;;
5876;SDS011;2964;42.144;24.730;2023-06-22T09:27:24;8.88;;;8.48;;
5876;SDS011;2964;42.144;24.730;2023-06-22T09:29:53;10.20;;;9.35;;
5876;SDS011;2964;42.144;24.730;2023-06-22T09:32:19;9.57;;;8.98;;
5876;SDS011;2964;42.144;24.730;2023-06-22T09:34:46;10.45;;;9.38;;
5876;SDS011;2964;42.144;24.730;2023-06-22T09:37:13;8.68;;;8.15;;
5876;SDS011;2964;42.144;24.730;2023-06-22T09:39:39;9.50;;;8.82;;
5876;SDS011;2964;42.144;24.730;2023-06-22T09:42:06;9.65;;;9.25;;
5876;SDS011;2964;42.144;24.730;2023-06-22T09:44:33;8.75;;;8.23;;
5876;SDS011;2964;42.144;24.730;2023-06-22T09:47:02;10.25;;;9.68;;
5876;SDS011;2964;42.144;24.730;2023-06-22T09:49:28;10.48;;;9.45;;
5876;SDS011;2964;42.144;24.730;2023-06-22T09:51:55;10.05;;;9.45;;
5876;SDS011;2964;42.144;24.730;2023-06-22T09:54:22;10.70;;;9.73;;
5876;SDS011;2964;42.144;24.730;2023-06-22T09:56:49;10.82;;;9.95;;
5876;SDS011;2964;42.144;24.730;2023-06-22T09:59:16;9.23;;;8.73;;
5876;SDS011;2964;42.144;24.730;2023-06-22T10:01:42;10.10;;;9.40;;
5876;SDS011;2964;42.144;24.730;2023-06-22T10:04:10;11.02;;;10.30;;
5876;SDS011;2964;42.144;24.730;2023-06-22T10:06:37;10.65;;;9.82;;
5876;SDS011;2964;42.144;24.730;2023-06-22T10:09:05;9.68;;;9.18;;
5876;SDS011;2964;42.144;24.730;2023-06-22T10:11:32;9.55;;;8.90;;
5876;SDS011;2964;42.144;24.730;2023-06-22T10:14:00;11.18;;;10.27;;
5876;SDS011;2964;42.144;24.730;2023-06-22T10:16:30;9.18;;;8.40;;
5876;SDS011;2964;42.144;24.730;2023-06-22T10:18:57;10.75;;;9.82;;
5876;SDS011;2964;42.144;24.730;2023-06-22T10:21:25;10.55;;;9.98;;
5876;SDS011;2964;42.144;24.730;2023-06-22T10:23:53;10.68;;;9.93;;
5876;SDS011;2964;42.144;24.730;2023-06-22T10:26:20;10.13;;;9.52;;
5876;SDS011;2964;42.144;24.730;2023-06-22T10:28:47;10.88;;;10.23;;
5876;SDS011;2964;42.144;24.730;2023-06-22T10:31:13;9.55;;;8.90;;
5876;SDS011;2964;42.144;24.730;2023-06-22T10:33:41;10.27;;;9.65;;
5876;SDS011;2964;42.144;24.730;2023-06-22T10:36:09;10.63;;;9.93;;
5876;SDS011;2964;42.144;24.730;2023-06-22T10:38:37;10.93;;;10.23;;
5876;SDS011;2964;42.144;24.730;2023-06-22T10:41:03;10.25;;;9.32;;
5876;SDS011;2964;42.144;24.730;2023-06-22T10:43:30;10.35;;;9.65;;
5876;SDS011;2964;42.144;24.730;2023-06-22T10:45:57;10.60;;;9.82;;
5876;SDS011;2964;42.144;24.730;2023-06-22T10:48:23;10.95;;;10.38;;
5876;SDS011;2964;42.144;24.730;2023-06-22T10:50:50;10.50;;;9.98;;
5876;SDS011;2964;42.144;24.730;2023-06-22T10:53:18;10.75;;;10.13;;
5876;SDS011;2964;42.144;24.730;2023-06-22T10:55:46;12.20;;;11.23;;
5876;SDS011;2964;42.144;24.730;2023-06-22T10:58:13;11.60;;;10.80;;
5876;SDS011;2964;42.144;24.730;2023-06-22T11:00:39;14.45;;;13.35;;
5876;SDS011;2964;42.144;24.730;2023-06-22T11:03:06;10.48;;;9.88;;
5876;SDS011;2964;42.144;24.730;2023-06-22T11:05:32;10.35;;;9.65;;
5876;SDS011;2964;42.144;24.730;2023-06-22T11:07:59;10.88;;;10.25;;
5876;SDS011;2964;42.144;24.730;2023-06-22T11:10:26;11.13;;;10.43;;
5876;SDS011;2964;42.144;24.730;2023-06-22T11:12:54;11.13;;;10.52;;
5876;SDS011;2964;42.144;24.730;2023-06-22T11:15:22;9.88;;;9.20;;
5876;SDS011;2964;42.144;24.730;2023-06-22T11:17:49;11.20;;;10.32;;
5876;SDS011;2964;42.144;24.730;2023-06-22T11:20:16;10.73;;;10.00;;
5876;SDS011;2964;42.144;24.730;2023-06-22T11:22:43;9.85;;;9.25;;
5876;SDS011;2964;42.144;24.730;2023-06-22T11:25:09;10.00;;;9.45;;
5876;SDS011;2964;42.144;24.730;2023-06-22T11:27:37;10.70;;;9.98;;
5876;SDS011;2964;42.144;24.730;2023-06-22T11:30:06;10.63;;;9.82;;
5876;SDS011;2964;42.144;24.730;2023-06-22T11:32:34;11.30;;;9.90;;
5876;SDS011;2964;42.144;24.730;2023-06-22T11:35:01;10.10;;;9.60;;
5876;SDS011;2964;42.144;24.730;2023-06-22T11:37:27;11.30;;;10.43;;
5876;SDS011;2964;42.144;24.730;2023-06-22T11:39:54;10.65;;;10.05;;
5876;SDS011;2964;42.144;24.730;2023-06-22T11:42:21;10.93;;;10.38;;
5876;SDS011;2964;42.144;24.730;2023-06-22T11:44:48;10.55;;;9.95;;
5876;SDS011;2964;42.144;24.730;2023-06-22T11:47:16;10.50;;;9.70;;
5876;SDS011;2964;42.144;24.730;2023-06-22T11:49:43;10.60;;;10.07;;
5876;SDS011;2964;42.144;24.730;2023-06-22T11:52:10;10.20;;;9.70;;
5876;SDS011;2964;42.144;24.730;2023-06-22T11:54:37;10.93;;;10.23;;
5876;SDS011;2964;42.144;24.730;2023-06-22T11:57:03;11.45;;;10.65;;
5876;SDS011;2964;42.144;24.730;2023-06-22T11:59:30;10.80;;;10.25;;
5876;SDS011;2964;42.144;24.730;2023-06-22T12:01:57;11.82;;;11.13;;
5876;SDS011;2964;42.144;24.730;2023-06-22T12:04:25;11.05;;;10.20;;
5876;SDS011;2964;42.144;24.730;2023-06-22T12:06:52;11.15;;;10.55;;
5876;SDS011;2964;42.144;24.730;2023-06-22T12:09:19;11.07;;;10.48;;
5876;SDS011;2964;42.144;24.730;2023-06-22T12:11:45;12.05;;;11.10;;
5876;SDS011;2964;42.144;24.730;2023-06-22T12:14:12;10.85;;;10.00;;
5876;SDS011;2964;42.144;24.730;2023-06-22T12:16:39;12.35;;;10.98;;
5876;SDS011;2964;42.144;24.730;2023-06-22T12:19:05;11.63;;;10.57;;
5876;SDS011;2964;42.144;24.730;2023-06-22T12:21:33;11.20;;;9.75;;
5876;SDS011;2964;42.144;24.730;2023-06-22T12:24:00;11.07;;;10.18;;
5876;SDS011;2964;42.144;24.730;2023-06-22T12:26:26;10.98;;;10.40;;
5876;SDS011;2964;42.144;24.730;2023-06-22T12:28:53;12.48;;;11.57;;
5876;SDS011;2964;42.144;24.730;2023-06-22T12:31:20;12.20;;;11.45;;
5876;SDS011;2964;42.144;24.730;2023-06-22T12:33:46;25.67;;;23.60;;
5876;SDS011;2964;42.144;24.730;2023-06-22T12:36:13;12.27;;;11.55;;
5876;SDS011;2964;42.144;24.730;2023-06-22T12:38:42;11.63;;;10.90;;
5876;SDS011;2964;42.144;24.730;2023-06-22T12:41:09;11.13;;;10.52;;
5876;SDS011;2964;42.144;24.730;2023-06-22T12:43:36;10.73;;;9.95;;
5876;SDS011;2964;42.144;24.730;2023-06-22T12:46:02;11.25;;;10.48;;
5876;SDS011;2964;42.144;24.730;2023-06-22T12:48:29;11.07;;;10.15;;
5876;SDS011;2964;42.144;24.730;2023-06-22T12:50:56;10.75;;;10.20;;
5876;SDS011;2964;42.144;24.730;2023-06-22T12:53:22;11.43;;;10.45;;
5876;SDS011;2964;42.144;24.730;2023-06-22T12:55:53;10.93;;;10.18;;
5876;SDS011;2964;42.144;24.730;2023-06-22T12:58:20;10.35;;;9.85;;
5876;SDS011;2964;42.144;24.730;2023-06-22T13:00:47;11.13;;;10.32;;
5876;SDS011;2964;42.144;24.730;2023-06-22T13:03:13;11.13;;;10.30;;
5876;SDS011;2964;42.144;24.730;2023-06-22T13:05:40;11.07;;;10.15;;
5876;SDS011;2964;42.144;24.730;2023-06-22T13:08:07;10.40;;;9.88;;
5876;SDS011;2964;42.144;24.730;2023-06-22T13:10:34;10.98;;;10.32;;
5876;SDS011;2964;42.144;24.730;2023-06-22T13:13:02;10.20;;;9.55;;
5876;SDS011;2964;42.144;24.730;2023-06-22T13:15:28;11.13;;;10.45;;
5876;SDS011;2964;42.144;24.730;2023-06-22T13:17:55;10.15;;;9.75;;
5876;SDS011;2964;42.144;24.730;2023-06-22T13:20:22;9.88;;;9.38;;
5876;SDS011;2964;42.144;24.730;2023-06-22T13:22:49;10.98;;;10.15;;
5876;SDS011;2964;42.144;24.730;2023-06-22T13:25:15;10.68;;;9.75;;
5876;SDS011;2964;42.144;24.730;2023-06-22T13:27:44;12.35;;;11.50;;
5876;SDS011;2964;42.144;24.730;2023-06-22T13:30:12;10.85;;;10.00;;
5876;SDS011;2964;42.144;24.730;2023-06-22T13:32:39;10.02;;;9.18;;
5876;SDS011;2964;42.144;24.730;2023-06-22T13:35:07;10.90;;;10.23;;
5876;SDS011;2964;42.144;24.730;2023-06-22T13:37:34;10.68;;;9.77;;
5876;SDS011;2964;42.144;24.730;2023-06-22T13:40:01;10.73;;;9.93;;
5876;SDS011;2964;42.144;24.730;2023-06-22T13:42:30;10.50;;;9.63;;
5876;SDS011;2964;42.144;24.730;2023-06-22T13:44:57;10.90;;;10.00;;
5876;SDS011;2964;42.144;24.730;2023-06-22T13:47:25;10.57;;;9.80;;
5876;SDS011;2964;42.144;24.730;2023-06-22T13:49:51;10.88;;;9.75;;
5876;SDS011;2964;42.144;24.730;2023-06-22T13:52:18;17.85;;;11.73;;
5876;SDS011;2964;42.144;24.730;2023-06-22T13:54:45;13.70;;;12.27;;
5876;SDS011;2964;42.144;24.730;2023-06-22T13:57:11;10.93;;;9.88;;
5876;SDS011;2964;42.144;24.730;2023-06-22T13:59:38;24.05;;;11.88;;
5876;SDS011;2964;42.144;24.730;2023-06-22T14:02:05;11.70;;;10.90;;
5876;SDS011;2964;42.144;24.730;2023-06-22T14:04:33;13.38;;;12.00;;
5876;SDS011;2964;42.144;24.730;2023-06-22T14:07:00;12.65;;;11.88;;
5876;SDS011;2964;42.144;24.730;2023-06-22T14:09:27;14.27;;;13.15;;
5876;SDS011;2964;42.144;24.730;2023-06-22T14:11:53;13.48;;;12.48;;
5876;SDS011;2964;42.144;24.730;2023-06-22T14:14:20;13.73;;;12.50;;
5876;SDS011;2964;42.144;24.730;2023-06-22T14:16:47;13.57;;;12.60;;
5876;SDS011;2964;42.144;24.730;2023-06-22T14:19:15;12.35;;;11.45;;
5876;SDS011;2964;42.144;24.730;2023-06-22T14:21:44;11.95;;;10.98;;
5876;SDS011;2964;42.144;24.730;2023-06-22T14:24:10;19.75;;;17.15;;
5876;SDS011;2964;42.144;24.730;2023-06-22T14:26:37;19.50;;;17.50;;
5876;SDS011;2964;42.144;24.730;2023-06-22T14:29:04;16.45;;;15.00;;
5876;SDS011;2964;42.144;24.730;2023-06-22T14:31:30;17.33;;;15.02;;
5876;SDS011;2964;42.144;24.730;2023-06-22T14:33:57;13.98;;;12.55;;
5876;SDS011;2964;42.144;24.730;2023-06-22T14:36:24;17.88;;;12.70;;
5876;SDS011;2964;42.144;24.730;2023-06-22T14:38:52;15.15;;;13.20;;